createdAt,value
2023-03-17T00:00:51.534Z,3.4
2023-03-17T00:02:51.541Z,3.2
2023-03-17T00:04:51.286Z,2.7
2023-03-17T00:06:51.822Z,3.1
2023-03-17T00:08:51.144Z,3
2023-03-17T00:10:51.817Z,2.8
2023-03-17T00:12:52.569Z,2.6
2023-03-17T00:14:50.962Z,2.2
2023-03-17T00:16:52.131Z,2.4
2023-03-17T00:18:52.334Z,2.5
2023-03-17T00:20:50.852Z,2.5
2023-03-17T00:22:51.329Z,2.5
2023-03-17T00:24:50.595Z,2.6
2023-03-17T00:26:50.580Z,2.4
2023-03-17T00:28:51.051Z,2.6
2023-03-17T00:30:53.753Z,2.7
2023-03-17T00:32:54.810Z,2.8
2023-03-17T00:34:51.228Z,2.7
2023-03-17T00:36:52.059Z,2.3
2023-03-17T00:38:51.110Z,2.6
2023-03-17T00:40:50.638Z,2.6
2023-03-17T00:42:51.612Z,3.1
2023-03-17T00:44:49.937Z,3
2023-03-17T00:46:50.031Z,3.5
2023-03-17T00:48:50.003Z,3.2
2023-03-17T00:50:50.312Z,3.5
2023-03-17T00:52:51.585Z,3.2
2023-03-17T00:54:49.707Z,3.5
2023-03-17T00:56:51.248Z,3
2023-03-17T00:58:49.678Z,3.5
2023-03-17T01:00:49.526Z,3.2
2023-03-17T01:02:49.774Z,3.3
2023-03-17T01:04:59.552Z,3.2
2023-03-17T01:06:52.356Z,3.2
2023-03-17T01:08:49.502Z,3.2
2023-03-17T01:10:49.276Z,3.2
2023-03-17T01:12:50.173Z,3.2
2023-03-17T01:14:49.575Z,3.4
2023-03-17T01:16:49.332Z,3
2023-03-17T01:18:48.976Z,3.1
2023-03-17T01:20:50.276Z,3.2
2023-03-17T01:22:49.558Z,2.9
2023-03-17T01:24:48.700Z,3
2023-03-17T01:26:49.760Z,2.9
2023-03-17T01:28:48.576Z,2.6
2023-03-17T01:30:48.674Z,3
2023-03-17T01:32:49.262Z,2.6
2023-03-17T01:34:48.388Z,2.3
2023-03-17T01:36:48.424Z,2.5
2023-03-17T01:38:48.389Z,2.5
2023-03-17T01:40:50.966Z,2.4
2023-03-17T01:42:52.083Z,2.2
2023-03-17T01:45:05.054Z,2.2
2023-03-17T01:46:48.270Z,2.1
2023-03-17T01:48:56.406Z,2.2
2023-03-17T01:50:49.760Z,1.8
2023-03-17T01:52:47.854Z,2.1
2023-03-17T01:54:53.933Z,2.1
2023-03-17T01:56:50.292Z,1.9
2023-03-17T01:58:51.320Z,1.8
2023-03-17T02:00:47.521Z,2
2023-03-17T02:02:50.700Z,1.7
2023-03-17T02:04:48.140Z,1.8
2023-03-17T02:06:59.246Z,1.5
2023-03-17T02:08:47.582Z,1.5
2023-03-17T02:10:48.882Z,1.7
2023-03-17T02:12:52.293Z,1.5
2023-03-17T02:14:47.037Z,1.7
2023-03-17T02:16:49.559Z,1.4
2023-03-17T02:18:49.251Z,1.6
2023-03-17T02:21:17.246Z,1.5
2023-03-17T02:22:49.569Z,1.3
2023-03-17T02:24:50.466Z,1.3
2023-03-17T02:26:48.762Z,1.2
2023-03-17T02:28:46.466Z,1.2
2023-03-17T02:30:49.328Z,1.2
2023-03-17T02:32:46.547Z,1.2
2023-03-17T02:34:47.609Z,1.5
2023-03-17T02:36:46.349Z,1.3
2023-03-17T02:38:46.103Z,1.2
2023-03-17T02:40:46.741Z,1.2
2023-03-17T02:42:46.237Z,1.1
2023-03-17T02:44:46.316Z,1.4
2023-03-17T02:46:46.132Z,1.2
2023-03-17T02:48:46.072Z,1.3
2023-03-17T02:50:45.697Z,1.2
2023-03-17T02:52:46.159Z,1.1
2023-03-17T02:54:45.646Z,1
2023-03-17T02:56:45.664Z,1.2
2023-03-17T02:58:46.050Z,1.3
2023-03-17T03:00:45.351Z,0.9
2023-03-17T03:02:45.339Z,1.6
2023-03-17T03:04:45.207Z,1.1
2023-03-17T03:06:45.437Z,1.2
2023-03-17T03:08:45.060Z,0.9
2023-03-17T03:10:45.032Z,1.1
2023-03-17T03:12:44.934Z,0.9
2023-03-17T03:14:44.794Z,1
2023-03-17T03:16:45.685Z,1.1
2023-03-17T03:18:44.646Z,1
2023-03-17T03:20:45.360Z,1
2023-03-17T03:22:44.620Z,1.1
2023-03-17T03:24:44.460Z,1.2
2023-03-17T03:26:44.422Z,1.1
2023-03-17T03:28:44.422Z,0.9
2023-03-17T03:30:44.931Z,0.8
2023-03-17T03:32:44.233Z,1.2
2023-03-17T03:34:44.172Z,0.9
2023-03-17T03:36:44.486Z,1.1
2023-03-17T03:38:44.662Z,1
2023-03-17T03:40:44.668Z,1.1
2023-03-17T03:42:43.797Z,1
2023-03-17T03:44:43.694Z,1.2
2023-03-17T03:46:43.684Z,0.8
2023-03-17T03:48:43.545Z,1
2023-03-17T03:50:43.794Z,0.8
2023-03-17T03:52:43.610Z,1
2023-03-17T03:54:43.343Z,1.6
2023-03-17T03:56:43.215Z,1.4
2023-03-17T03:58:43.105Z,0.9
2023-03-17T04:00:43.232Z,0.8
2023-03-17T04:02:43.676Z,1
2023-03-17T04:04:42.953Z,1.4
2023-03-17T04:06:42.702Z,1.1
2023-03-17T04:08:42.746Z,1
2023-03-17T04:10:42.607Z,0.9
2023-03-17T04:12:43.051Z,1
2023-03-17T04:14:42.661Z,1
2023-03-17T04:16:43.607Z,1.4
2023-03-17T04:18:42.322Z,1.1
2023-03-17T04:20:42.110Z,1.3
2023-03-17T04:22:43.322Z,1
2023-03-17T04:24:41.969Z,1
2023-03-17T04:26:42.183Z,0.9
2023-03-17T04:28:41.922Z,1
2023-03-17T04:30:41.751Z,1.1
2023-03-17T04:32:42.295Z,1
2023-03-17T04:34:42.244Z,1.8
2023-03-17T04:36:41.961Z,1
2023-03-17T04:38:41.546Z,1.5
2023-03-17T04:40:41.503Z,1
2023-03-17T04:42:41.824Z,1.2
2023-03-17T04:44:41.344Z,1.1
2023-03-17T04:46:41.338Z,1.1
2023-03-17T04:48:41.192Z,1
2023-03-17T04:50:41.103Z,1.1
2023-03-17T04:52:41.456Z,1.2
2023-03-17T04:54:40.982Z,1.5
2023-03-17T04:56:40.978Z,1.2
2023-03-17T04:58:40.932Z,1.5
2023-03-17T05:00:40.914Z,1.2
2023-03-17T05:02:40.891Z,1.3
2023-03-17T05:04:40.851Z,1.1
2023-03-17T05:06:40.594Z,1
2023-03-17T05:08:40.588Z,1
2023-03-17T05:10:41.034Z,0.9
2023-03-17T05:12:40.363Z,1
2023-03-17T05:14:40.794Z,0.8
2023-03-17T05:16:40.419Z,1.2
2023-03-17T05:18:40.357Z,1.1
2023-03-17T05:20:40.334Z,0.8
2023-03-17T05:22:40.474Z,0.8
2023-03-17T05:24:40.041Z,0.8
2023-03-17T05:26:40.404Z,1.1
2023-03-17T05:28:40.017Z,1.1
2023-03-17T05:30:40.416Z,1.1
2023-03-17T05:32:39.827Z,1
2023-03-17T05:34:39.697Z,1.3
2023-03-17T05:36:39.722Z,1
2023-03-17T05:38:39.721Z,1.2
2023-03-17T05:40:39.676Z,0.9
2023-03-17T05:42:40.253Z,1
2023-03-17T05:44:39.558Z,1.2
2023-03-17T05:46:39.479Z,1.2
2023-03-17T05:48:39.994Z,1.4
2023-03-17T05:50:39.666Z,1.3
2023-03-17T05:52:39.412Z,1.2
2023-03-17T05:54:39.274Z,1.2
2023-03-17T05:56:39.218Z,1.1
2023-03-17T05:58:39.149Z,1.2
2023-03-17T06:00:39.217Z,1.1
2023-03-17T06:02:39.442Z,1.2
2023-03-17T06:04:39.430Z,1.1
2023-03-17T06:06:38.984Z,1.1
2023-03-17T06:08:38.961Z,1.1
2023-03-17T06:10:38.989Z,1.1
2023-03-17T06:12:39.247Z,1.1
2023-03-17T06:14:38.788Z,1.3
2023-03-17T06:16:38.782Z,1
2023-03-17T06:18:38.869Z,1.2
2023-03-17T06:20:38.697Z,1.1
2023-03-17T06:22:46.225Z,1
2023-03-17T06:24:39.182Z,1.3
2023-03-17T06:26:38.761Z,1.3
2023-03-17T06:28:38.781Z,1.1
2023-03-17T06:30:40.756Z,0.9
2023-03-17T06:32:38.771Z,1
2023-03-17T06:34:38.711Z,1.1
2023-03-17T06:36:38.794Z,1
2023-03-17T06:38:38.858Z,1
2023-03-17T06:40:38.747Z,1.1
2023-03-17T06:42:38.719Z,1.2
2023-03-17T06:44:38.820Z,1
2023-03-17T06:46:38.955Z,1
2023-03-17T06:48:38.854Z,1.1
2023-03-17T06:50:38.657Z,1
2023-03-17T06:52:39.463Z,0.9
2023-03-17T06:54:39.191Z,0.9
2023-03-17T06:56:38.685Z,0.9
2023-03-17T06:58:38.636Z,0.9
2023-03-17T07:00:38.766Z,1.1
2023-03-17T07:02:38.831Z,1.3
2023-03-17T07:04:38.753Z,1
2023-03-17T07:06:38.685Z,1.9
2023-03-17T07:08:39.005Z,1.8
2023-03-17T07:10:41.305Z,1.3
2023-03-17T07:12:38.553Z,1.3
2023-03-17T07:14:38.589Z,1.2
2023-03-17T07:16:38.841Z,1.3
2023-03-17T07:18:38.616Z,1
2023-03-17T07:20:38.661Z,1.2
2023-03-17T07:22:38.572Z,1.1
2023-03-17T07:24:38.638Z,0.9
2023-03-17T07:26:38.499Z,0.9
2023-03-17T07:28:38.559Z,1.1
2023-03-17T07:30:38.738Z,1.1
2023-03-17T07:32:38.549Z,1.2
2023-03-17T07:34:38.587Z,1.3
2023-03-17T07:36:39.357Z,1.4
2023-03-17T07:38:38.546Z,1
2023-03-17T07:40:38.670Z,1.3
2023-03-17T07:42:38.558Z,1.9
2023-03-17T07:44:38.735Z,1.3
2023-03-17T07:46:38.632Z,1.4
2023-03-17T07:48:38.631Z,1.3
2023-03-17T07:50:39.002Z,1.5
2023-03-17T07:52:38.751Z,1.4
2023-03-17T07:54:42.295Z,1
2023-03-17T07:56:39.446Z,1
2023-03-17T07:58:38.638Z,1
2023-03-17T08:00:38.671Z,1.8
2023-03-17T08:02:38.975Z,2.3
2023-03-17T08:04:38.711Z,2.1
2023-03-17T08:06:38.689Z,1.8
2023-03-17T08:08:38.719Z,1.9
2023-03-17T08:10:38.735Z,7.3
2023-03-17T08:12:39.445Z,2.8
2023-03-17T08:14:38.888Z,2.9
2023-03-17T08:16:38.865Z,1.6
2023-03-17T08:18:38.972Z,0.8
2023-03-17T08:20:38.812Z,1.1
2023-03-17T08:22:38.739Z,1.8
2023-03-17T08:24:38.945Z,1.2
2023-03-17T08:26:39.043Z,1.1
2023-03-17T08:28:39.286Z,1.5
2023-03-17T08:30:39.375Z,1
2023-03-17T08:32:38.941Z,0.7
2023-03-17T08:34:38.853Z,0.8
2023-03-17T08:36:38.833Z,1
2023-03-17T08:38:40.569Z,0.8
2023-03-17T08:40:39.676Z,1
2023-03-17T08:42:38.969Z,1
2023-03-17T08:44:38.739Z,1.5
2023-03-17T08:46:38.832Z,1.2
2023-03-17T08:48:38.989Z,0.9
2023-03-17T08:50:38.833Z,0.7
2023-03-17T08:52:38.867Z,0.7
2023-03-17T08:54:39.063Z,0.8
2023-03-17T08:56:40.420Z,0.8
2023-03-17T08:58:39.297Z,1.6
2023-03-17T09:00:38.839Z,1.3
2023-03-17T09:02:40.375Z,0.9
2023-03-17T09:04:40.310Z,0.9
2023-03-17T09:06:42.319Z,1
2023-03-17T09:08:40.922Z,0.8
2023-03-17T09:10:39.044Z,0.7
2023-03-17T09:12:39.053Z,0.6
2023-03-17T09:14:43.956Z,1.1
2023-03-17T09:16:38.679Z,0.7
2023-03-17T09:18:38.771Z,0.7
2023-03-17T09:20:38.742Z,0.5
2023-03-17T09:22:38.679Z,0.6
2023-03-17T09:24:38.727Z,0.8
2023-03-17T09:26:38.844Z,0.8
2023-03-17T09:28:38.607Z,1.1
2023-03-17T09:30:40.883Z,1.1
2023-03-17T09:32:39.061Z,0.7
2023-03-17T09:34:38.702Z,0.7
2023-03-17T09:36:38.587Z,0.6
2023-03-17T09:38:39.050Z,0.5
2023-03-17T09:40:46.336Z,0.7
2023-03-17T09:42:50.388Z,0.7
2023-03-17T09:44:51.707Z,0.7
2023-03-17T09:46:48.557Z,1.1
2023-03-17T09:48:49.907Z,0.6
2023-03-17T09:50:45.518Z,0.9
2023-03-17T09:52:38.604Z,0.8
2023-03-17T09:54:39.094Z,1
2023-03-17T09:56:42.560Z,0.6
2023-03-17T09:58:41.886Z,0.7
2023-03-17T10:00:38.565Z,0.8
2023-03-17T10:02:38.580Z,0.9
2023-03-17T10:04:38.691Z,0.9
2023-03-17T10:06:42.918Z,0.8
2023-03-17T10:08:46.061Z,1.1
2023-03-17T10:10:44.952Z,0.8
2023-03-17T10:12:48.925Z,1.2
2023-03-17T10:14:51.353Z,1
2023-03-17T10:16:46.805Z,0.7
2023-03-17T10:18:51.231Z,0.8
2023-03-17T10:20:51.461Z,0.8
2023-03-17T10:22:42.485Z,0.8
2023-03-17T10:24:45.391Z,3.3
2023-03-17T10:26:43.658Z,1.6
2023-03-17T10:28:39.116Z,1.2
2023-03-17T10:30:38.954Z,1
2023-03-17T10:32:39.904Z,1
2023-03-17T10:34:40.759Z,0.9
2023-03-17T10:36:40.504Z,0.8
2023-03-17T10:38:38.661Z,0.9
2023-03-17T10:40:38.659Z,0.9
2023-03-17T10:42:46.243Z,0.9
2023-03-17T10:44:42.953Z,0.9
2023-03-17T10:46:38.652Z,1
2023-03-17T10:48:38.550Z,1.1
2023-03-17T10:50:40.121Z,0.9
2023-03-17T10:52:39.056Z,0.7
2023-03-17T10:54:38.586Z,0.9
2023-03-17T10:56:40.896Z,0.8
2023-03-17T10:58:44.683Z,0.8
2023-03-17T11:00:49.591Z,1
2023-03-17T11:02:46.358Z,0.9
2023-03-17T11:04:41.840Z,1
2023-03-17T11:06:42.204Z,1.1
2023-03-17T11:08:41.180Z,1
2023-03-17T11:10:40.578Z,0.9
2023-03-17T11:12:40.559Z,0.7
2023-03-17T11:14:43.234Z,0.8
2023-03-17T11:16:46.795Z,0.8
2023-03-17T11:18:39.619Z,0.9
2023-03-17T11:20:46.621Z,0.9
2023-03-17T11:22:41.425Z,1
2023-03-17T11:24:47.991Z,1
2023-03-17T11:26:51.040Z,0.8
2023-03-17T11:28:43.266Z,0.8
2023-03-17T11:30:43.823Z,1
2023-03-17T11:32:44.721Z,1
2023-03-17T11:34:49.601Z,0.8
2023-03-17T11:36:52.020Z,0.8
2023-03-17T11:38:48.973Z,0.9
2023-03-17T11:40:49.112Z,0.9
2023-03-17T11:42:47.802Z,1
2023-03-17T11:44:58.762Z,1
2023-03-17T11:46:46.526Z,0.9
2023-03-17T11:48:52.596Z,1
2023-03-17T11:50:43.587Z,1.2
2023-03-17T11:52:48.994Z,0.9
2023-03-17T11:54:48.512Z,1
2023-03-17T11:56:44.653Z,1.1
2023-03-17T11:58:42.219Z,1.1
2023-03-17T12:00:43.994Z,0.8
2023-03-17T12:02:42.940Z,1
2023-03-17T12:04:47.703Z,0.9
2023-03-17T12:06:45.431Z,0.8
2023-03-17T12:08:42.146Z,0.9
2023-03-17T12:10:45.566Z,0.9
2023-03-17T12:12:44.705Z,0.9
2023-03-17T12:14:43.436Z,1
2023-03-17T12:16:45.205Z,0.9
2023-03-17T12:18:46.210Z,0.9
2023-03-17T12:20:47.841Z,0.9
2023-03-17T12:22:44.333Z,0.9
2023-03-17T12:24:46.543Z,0.9
2023-03-17T12:26:47.237Z,1
2023-03-17T12:28:45.824Z,1
2023-03-17T12:30:48.710Z,1.1
2023-03-17T12:32:44.824Z,0.9
2023-03-17T12:34:45.576Z,1
2023-03-17T12:36:39.661Z,1.2
2023-03-17T12:38:43.046Z,1.4
2023-03-17T12:40:56.891Z,1.2
2023-03-17T12:42:50.514Z,1.6
2023-03-17T12:45:03.918Z,1.7
2023-03-17T12:46:58.181Z,1.2
2023-03-17T12:48:55.583Z,1.1
2023-03-17T12:50:59.959Z,1.5
2023-03-17T12:52:52.686Z,1.1
2023-03-17T12:54:46.091Z,1.1
2023-03-17T12:56:44.626Z,1.1
2023-03-17T12:58:43.358Z,1.6
2023-03-17T13:00:48.445Z,1.1
2023-03-17T13:02:39.727Z,0.9
2023-03-17T13:04:48.551Z,1
2023-03-17T13:06:43.287Z,1.2
2023-03-17T13:08:40.664Z,1.7
2023-03-17T13:10:42.192Z,2
2023-03-17T13:12:56.381Z,1.2
2023-03-17T13:14:42.854Z,1.8
2023-03-17T13:16:41.506Z,4.5
2023-03-17T13:18:48.155Z,4.9
2023-03-17T13:20:43.274Z,2.8
2023-03-17T13:22:41.687Z,3
2023-03-17T13:24:44.485Z,3.2
2023-03-17T13:26:56.566Z,3.2
2023-03-17T13:28:44.031Z,1.8
2023-03-17T13:30:54.528Z,1.3
2023-03-17T13:32:39.315Z,1.4
2023-03-17T13:34:45.431Z,1.1
2023-03-17T13:36:47.108Z,1.2
2023-03-17T13:39:15.166Z,1
2023-03-17T13:40:50.176Z,1.2
2023-03-17T13:42:52.234Z,2.1
2023-03-17T13:44:58.969Z,3.2
2023-03-17T13:46:43.327Z,2.2
2023-03-17T13:48:40.822Z,1.3
2023-03-17T13:50:40.001Z,0.8
2023-03-17T13:52:42.471Z,1.9
2023-03-17T13:54:46.193Z,1.3
2023-03-17T13:56:48.355Z,1.2
2023-03-17T13:58:55.410Z,0.9
2023-03-17T14:00:42.317Z,1.1
2023-03-17T14:02:39.954Z,1.1
2023-03-17T14:04:49.641Z,1
2023-03-17T14:06:39.346Z,0.8
2023-03-17T14:08:44.276Z,1
2023-03-17T14:10:38.849Z,1.1
2023-03-17T14:12:43.991Z,1.1
2023-03-17T14:14:47.285Z,1.3
2023-03-17T14:16:44.564Z,1
2023-03-17T14:18:42.322Z,1.1
2023-03-17T14:20:39.070Z,1.1
2023-03-17T14:22:41.526Z,1.1
2023-03-17T14:24:39.395Z,1.2
2023-03-17T14:26:38.649Z,1.7
2023-03-17T14:28:38.591Z,1.5
2023-03-17T14:30:38.825Z,1.8
2023-03-17T14:32:38.931Z,1.6
2023-03-17T14:34:42.339Z,1.6
2023-03-17T14:36:38.575Z,1.6
2023-03-17T14:38:45.593Z,1.4
2023-03-17T14:40:38.496Z,1.3
2023-03-17T14:42:38.441Z,1.2
2023-03-17T14:44:40.698Z,1.3
2023-03-17T14:46:38.408Z,1.2
2023-03-17T14:48:42.177Z,1.2
2023-03-17T14:50:48.332Z,0.9
2023-03-17T14:52:38.240Z,1.7
2023-03-17T14:54:38.729Z,2
2023-03-17T14:56:41.786Z,1.4
2023-03-17T14:58:42.278Z,1.2
2023-03-17T15:00:44.880Z,0.9
2023-03-17T15:02:38.136Z,1.4
2023-03-17T15:04:51.106Z,1.1
2023-03-17T15:06:48.782Z,1.3
2023-03-17T15:08:42.783Z,1.3
2023-03-17T15:10:42.259Z,2
2023-03-17T15:12:38.214Z,1.4
2023-03-17T15:14:39.526Z,1.2
2023-03-17T15:16:39.207Z,1.3
2023-03-17T15:18:37.834Z,1.3
2023-03-17T15:20:38.316Z,1.1
2023-03-17T15:22:42.081Z,1.3
2023-03-17T15:24:39.968Z,0.9
2023-03-17T15:26:37.553Z,1.2
2023-03-17T15:28:37.468Z,1.5
2023-03-17T15:30:47.057Z,1
2023-03-17T15:32:37.760Z,1.3
2023-03-17T15:34:37.373Z,1.2
2023-03-17T15:36:37.286Z,1.1
2023-03-17T15:38:37.576Z,1.4
2023-03-17T15:40:37.227Z,1.5
2023-03-17T15:42:38.173Z,1.5
2023-03-17T15:44:37.014Z,2.4
2023-03-17T15:46:37.088Z,3.1
2023-03-17T15:48:37.288Z,3.4
2023-03-17T15:50:37.079Z,1.6
2023-03-17T15:52:36.731Z,2.4
2023-03-17T15:54:36.664Z,1.6
2023-03-17T15:56:36.616Z,2.1
2023-03-17T15:58:36.565Z,2.3
2023-03-17T16:00:36.795Z,1.8
2023-03-17T16:02:36.672Z,2.3
2023-03-17T16:04:37.115Z,2.8
2023-03-17T16:06:36.253Z,2.8
2023-03-17T16:08:36.192Z,2.4
2023-03-17T16:10:36.173Z,2.8
2023-03-17T16:12:36.191Z,3.9
2023-03-17T16:14:35.892Z,5.4
2023-03-17T16:16:38.009Z,25.1
2023-03-17T16:18:37.390Z,5.4
2023-03-17T16:20:40.767Z,6.6
2023-03-17T16:22:38.786Z,5.3
2023-03-17T16:24:35.570Z,4.2
2023-03-17T16:26:35.394Z,3.9
2023-03-17T16:28:35.472Z,3.6
2023-03-17T16:30:35.428Z,2.2
2023-03-17T16:32:35.350Z,2.1
2023-03-17T16:34:35.120Z,1.9
2023-03-17T16:36:34.980Z,1.7
2023-03-17T16:38:34.977Z,1.5
2023-03-17T16:40:37.722Z,1.5
2023-03-17T16:42:38.798Z,1.5
2023-03-17T16:44:34.696Z,1.6
2023-03-17T16:46:35.694Z,1.9
2023-03-17T16:48:34.596Z,2.2
2023-03-17T16:50:34.507Z,2.8
2023-03-17T16:52:34.329Z,3.4
2023-03-17T16:54:34.223Z,2.9
2023-03-17T16:56:34.847Z,3.8
2023-03-17T16:58:35.323Z,2.8
2023-03-17T17:00:34.358Z,2.4
2023-03-17T17:02:34.417Z,2.3
2023-03-17T17:04:33.990Z,2.7
2023-03-17T17:06:33.908Z,3
2023-03-17T17:08:33.815Z,5.8
2023-03-17T17:10:35.676Z,6.3
2023-03-17T17:12:33.334Z,7
2023-03-17T17:14:33.298Z,5.2
2023-03-17T17:16:36.654Z,4.7
2023-03-17T17:18:33.240Z,4.5
2023-03-17T17:20:34.927Z,3.9
2023-03-17T17:22:32.786Z,3.2
2023-03-17T17:24:32.718Z,2.3
2023-03-17T17:26:32.539Z,2.4
2023-03-17T17:28:32.523Z,1.8
2023-03-17T17:30:32.727Z,2.5
2023-03-17T17:32:32.510Z,2.2
2023-03-17T17:34:31.923Z,2.3
2023-03-17T17:36:31.889Z,2.2
2023-03-17T17:38:31.847Z,2
2023-03-17T17:40:32.129Z,2.2
2023-03-17T17:42:31.838Z,2.9
2023-03-17T17:44:31.258Z,2.5
2023-03-17T17:46:31.230Z,2.9
2023-03-17T17:48:30.999Z,3.1
2023-03-17T17:50:31.408Z,3.4
2023-03-17T17:52:30.938Z,3
2023-03-17T17:54:30.928Z,4.2
2023-03-17T17:56:30.522Z,4.2
2023-03-17T17:58:30.378Z,4.1
2023-03-17T18:00:30.510Z,3.9
2023-03-17T18:02:30.091Z,3.9
2023-03-17T18:04:30.361Z,4.3
2023-03-17T18:06:29.755Z,4.5
2023-03-17T18:08:29.571Z,4.7
2023-03-17T18:10:30.620Z,5.5
2023-03-17T18:12:29.335Z,6.5
2023-03-17T18:14:29.154Z,6.3
2023-03-17T18:16:29.276Z,6.2
2023-03-17T18:18:28.991Z,6.1
2023-03-17T18:20:28.865Z,5.3
2023-03-17T18:22:28.647Z,5.5
2023-03-17T18:24:28.430Z,5.9
2023-03-17T18:26:28.437Z,5.2
2023-03-17T18:28:28.780Z,5.6
2023-03-17T18:30:30.433Z,5
2023-03-17T18:32:28.827Z,4.8
2023-03-17T18:34:31.829Z,5.9
2023-03-17T18:36:28.859Z,5.1
2023-03-17T18:38:27.596Z,5.1
2023-03-17T18:40:27.758Z,5.6
2023-03-17T18:42:27.201Z,4.9
2023-03-17T18:44:27.053Z,4.1
2023-03-17T18:46:26.899Z,4.7
2023-03-17T18:48:26.867Z,3.7
2023-03-17T18:50:26.674Z,3.8
2023-03-17T18:52:30.741Z,3.9
2023-03-17T18:54:28.158Z,3.6
2023-03-17T18:56:26.450Z,3.8
2023-03-17T18:58:26.233Z,5
2023-03-17T19:00:25.910Z,4.3
2023-03-17T19:02:25.964Z,4.9
2023-03-17T19:04:25.640Z,4.9
2023-03-17T19:06:25.555Z,5.3
2023-03-17T19:08:25.316Z,6.1
2023-03-17T19:10:25.072Z,6.7
2023-03-17T19:12:25.190Z,5.2
2023-03-17T19:14:24.801Z,5.3
2023-03-17T19:16:24.753Z,5
2023-03-17T19:18:24.525Z,4.3
2023-03-17T19:20:24.377Z,4
2023-03-17T19:22:24.336Z,3.9
2023-03-17T19:24:24.113Z,3.5
2023-03-17T19:26:23.980Z,4
2023-03-17T19:28:23.852Z,3.7
2023-03-17T19:30:23.746Z,4
2023-03-17T19:32:23.833Z,3.2
2023-03-17T19:34:23.335Z,2.9
2023-03-17T19:36:23.428Z,3.1
2023-03-17T19:38:23.756Z,3.1
2023-03-17T19:40:23.028Z,2.4
2023-03-17T19:42:22.879Z,2.8
2023-03-17T19:44:22.692Z,2.5
2023-03-17T19:46:22.602Z,2.8
2023-03-17T19:48:22.518Z,2.9
2023-03-17T19:50:22.490Z,2.8
2023-03-17T19:52:22.079Z,2.3
2023-03-17T19:54:23.321Z,2.8
2023-03-17T19:56:21.810Z,3.2
2023-03-17T19:58:21.605Z,2.8
2023-03-17T20:00:22.189Z,2.8
2023-03-17T20:02:21.309Z,2.8
2023-03-17T20:04:21.278Z,2.7
2023-03-17T20:06:21.024Z,2.4
2023-03-17T20:08:21.276Z,2.2
2023-03-17T20:10:20.779Z,2.7
2023-03-17T20:12:21.078Z,2.7
2023-03-17T20:14:20.904Z,2.5
2023-03-17T20:16:20.221Z,2.5
2023-03-17T20:18:20.265Z,2.8
2023-03-17T20:20:19.885Z,2.2
2023-03-17T20:22:19.725Z,2.5
2023-03-17T20:24:19.633Z,2.7
2023-03-17T20:26:19.638Z,2.6
2023-03-17T20:28:20.494Z,2.4
2023-03-17T20:30:19.532Z,2.9
2023-03-17T20:32:18.870Z,2.4
2023-03-17T20:34:18.728Z,2.3
2023-03-17T20:36:18.619Z,2.4
2023-03-17T20:38:19.054Z,2.8
2023-03-17T20:40:18.478Z,2.8
2023-03-17T20:42:20.506Z,2.7
2023-03-17T20:44:18.958Z,3
2023-03-17T20:46:19.416Z,2.9
2023-03-17T20:48:17.605Z,2.5
2023-03-17T20:50:17.678Z,2.8
2023-03-17T20:52:17.201Z,2.9
2023-03-17T20:54:17.090Z,2.5
2023-03-17T20:56:19.239Z,2.7
2023-03-17T20:58:18.029Z,2.3
2023-03-17T21:00:18.857Z,2.7
2023-03-17T21:02:17.699Z,2.5
2023-03-17T21:04:16.375Z,2.5
2023-03-17T21:06:16.987Z,2.7
2023-03-17T21:08:15.902Z,2.5
2023-03-17T21:10:16.832Z,2.5
2023-03-17T21:12:17.085Z,2.4
2023-03-17T21:14:15.420Z,2.6
2023-03-17T21:16:17.422Z,2.6
2023-03-17T21:18:15.136Z,2.4
2023-03-17T21:20:15.546Z,2.2
2023-03-17T21:22:14.979Z,2.4
2023-03-17T21:24:24.420Z,2.7
2023-03-17T21:26:14.776Z,2.7
2023-03-17T21:28:14.212Z,2.8
2023-03-17T21:30:14.589Z,2.4
2023-03-17T21:32:13.897Z,2.6
2023-03-17T21:34:13.706Z,2.9
2023-03-17T21:36:13.948Z,2.6
2023-03-17T21:38:13.441Z,2.8
2023-03-17T21:40:14.167Z,2.7
2023-03-17T21:42:13.033Z,2.5
2023-03-17T21:44:12.801Z,3.1
2023-03-17T21:46:12.977Z,2.4
2023-03-17T21:48:12.526Z,2.4
2023-03-17T21:50:15.361Z,2.7
2023-03-17T21:52:12.255Z,2.5
2023-03-17T21:54:14.824Z,2.6
2023-03-17T21:56:12.615Z,2.5
2023-03-17T21:58:11.572Z,2.8
2023-03-17T22:00:13.546Z,2.7
2023-03-17T22:02:11.604Z,2.7
2023-03-17T22:04:11.111Z,2.6
2023-03-17T22:06:12.313Z,2.5
2023-03-17T22:08:10.631Z,2.5
2023-03-17T22:10:11.343Z,2.3
2023-03-17T22:12:11.014Z,2.4
2023-03-17T22:14:11.035Z,2.5
2023-03-17T22:16:11.356Z,2.9
2023-03-17T22:18:09.655Z,2.7
2023-03-17T22:20:10.802Z,2.7
2023-03-17T22:22:09.504Z,3.1
2023-03-17T22:24:09.783Z,3.1
2023-03-17T22:26:11.953Z,3.5
2023-03-17T22:28:08.635Z,2.9
2023-03-17T22:30:09.888Z,3.1
2023-03-17T22:32:08.748Z,3.2
2023-03-17T22:34:08.470Z,2.8
2023-03-17T22:36:08.551Z,3.1
2023-03-17T22:38:09.888Z,2.9
2023-03-17T22:40:08.735Z,2.9
2023-03-17T22:42:07.429Z,3.3
2023-03-17T22:44:08.278Z,3.6
2023-03-17T22:46:07.944Z,4.1
2023-03-17T22:48:07.093Z,3.5
2023-03-17T22:50:07.438Z,3.3
2023-03-17T22:52:06.618Z,3.8
2023-03-17T22:54:06.810Z,3.9
2023-03-17T22:56:07.368Z,4.2
2023-03-17T22:58:05.765Z,4.3
2023-03-17T23:00:09.930Z,5.4
2023-03-17T23:02:05.342Z,5.7
2023-03-17T23:04:05.500Z,5.4
2023-03-17T23:06:06.824Z,9.7
2023-03-17T23:08:04.960Z,9.1
2023-03-17T23:10:06.056Z,11.4
2023-03-17T23:12:04.872Z,8.4
2023-03-17T23:14:04.071Z,12.9
2023-03-17T23:16:04.386Z,13
2023-03-17T23:18:04.314Z,14.4
2023-03-17T23:20:04.817Z,19
2023-03-17T23:22:03.530Z,21.5
2023-03-17T23:24:04.292Z,29
2023-03-17T23:26:03.405Z,31.8
2023-03-17T23:28:03.176Z,28
2023-03-17T23:30:02.708Z,27.6
2023-03-17T23:32:02.234Z,24.6
2023-03-17T23:34:02.511Z,17.5
2023-03-17T23:36:01.781Z,18.4
2023-03-17T23:38:01.654Z,17.8
2023-03-17T23:40:01.481Z,17.8
2023-03-17T23:42:01.089Z,19.9
2023-03-17T23:44:00.877Z,18.2
2023-03-17T23:46:01.336Z,16.4
2023-03-17T23:48:00.556Z,17.5
2023-03-17T23:50:00.143Z,19.1
2023-03-17T23:52:00.012Z,17.4
2023-03-17T23:53:59.731Z,17.5
2023-03-17T23:55:59.654Z,19.1
2023-03-17T23:57:59.379Z,16.1
2023-03-17T23:59:59.068Z,12
